createdAt,value
2017-12-22T00:00:21.595Z,97.10
2017-12-22T00:02:49.392Z,105.17
2017-12-22T00:05:17.279Z,101.27
2017-12-22T00:07:45.148Z,89.07
2017-12-22T00:10:13.031Z,64.60
2017-12-22T00:12:40.861Z,102.87
2017-12-22T00:15:08.713Z,68.87
2017-12-22T00:17:36.615Z,104.70
2017-12-22T00:20:04.516Z,99.83
2017-12-22T00:22:32.389Z,87.90
2017-12-22T00:25:00.252Z,98.77
2017-12-22T00:27:28.118Z,94.13
2017-12-22T00:29:55.988Z,93.17
2017-12-22T00:32:23.852Z,103.83
2017-12-22T00:34:51.717Z,96.80
2017-12-22T00:37:19.582Z,103.27
2017-12-22T00:39:47.452Z,95.43
2017-12-22T00:42:15.321Z,92.13
2017-12-22T00:44:43.212Z,95.37
2017-12-22T00:47:11.061Z,116.37
2017-12-22T00:49:38.924Z,104.03
2017-12-22T00:52:06.816Z,92.73
2017-12-22T00:54:34.650Z,90.57
2017-12-22T00:57:02.524Z,98.27
2017-12-22T00:59:30.373Z,96.80
2017-12-22T01:01:58.216Z,91.03
2017-12-22T01:04:26.064Z,89.50
2017-12-22T01:06:53.957Z,85.67
2017-12-22T01:09:21.795Z,95.10
2017-12-22T01:11:49.663Z,95.33
2017-12-22T01:14:17.511Z,111.60
2017-12-22T01:16:51.484Z,96.80
2017-12-22T01:19:19.346Z,89.43
2017-12-22T01:21:47.202Z,104.60
2017-12-22T01:24:15.078Z,90.47
2017-12-22T01:26:43.003Z,99.03
2017-12-22T01:29:10.890Z,87.20
2017-12-22T01:31:38.777Z,80.30
2017-12-22T01:34:06.648Z,85.90
2017-12-22T01:36:34.551Z,81.23
2017-12-22T01:39:02.434Z,67.77
2017-12-22T01:41:30.268Z,84.07
2017-12-22T01:43:58.113Z,65.80
2017-12-22T01:46:25.936Z,75.37
2017-12-22T01:48:53.846Z,79.20
2017-12-22T01:51:21.726Z,69.43
2017-12-22T01:53:49.620Z,67.37
2017-12-22T01:56:17.504Z,73.93
2017-12-22T01:58:45.372Z,90.70
2017-12-22T02:01:13.227Z,94.10
2017-12-22T02:03:41.092Z,73.23
2017-12-22T02:06:08.955Z,78.30
2017-12-22T02:08:36.863Z,69.23
2017-12-22T02:11:04.690Z,89.67
2017-12-22T02:13:32.566Z,62.80
2017-12-22T02:16:00.397Z,60.37
2017-12-22T02:18:28.296Z,64.20
2017-12-22T02:20:56.165Z,64.57
2017-12-22T02:23:24.040Z,57.00
2017-12-22T02:25:51.852Z,78.30
2017-12-22T02:28:19.726Z,61.70
2017-12-22T02:30:47.582Z,64.73
2017-12-22T02:33:15.421Z,65.77
2017-12-22T02:35:43.303Z,62.87
2017-12-22T02:38:11.180Z,71.67
2017-12-22T02:40:39.048Z,68.43
2017-12-22T02:43:06.898Z,74.00
2017-12-22T02:45:34.808Z,61.20
2017-12-22T02:48:02.640Z,70.07
2017-12-22T02:50:30.586Z,67.27
2017-12-22T02:52:58.450Z,55.30
2017-12-22T02:55:26.328Z,64.03
2017-12-22T02:57:54.193Z,59.07
2017-12-22T03:00:22.060Z,62.67
2017-12-22T03:02:49.930Z,73.73
2017-12-22T03:05:17.804Z,62.53
2017-12-22T03:07:45.669Z,53.87
2017-12-22T03:10:13.584Z,53.23
2017-12-22T03:12:41.482Z,41.40
2017-12-22T03:15:09.345Z,50.87
2017-12-22T03:17:37.180Z,41.20
2017-12-22T03:20:05.039Z,39.63
2017-12-22T03:22:32.920Z,45.77
2017-12-22T03:25:00.772Z,45.57
2017-12-22T03:27:28.651Z,36.67
2017-12-22T03:29:56.499Z,44.53
2017-12-22T03:32:24.375Z,50.07
2017-12-22T03:34:52.280Z,37.20
2017-12-22T03:37:20.139Z,43.63
2017-12-22T03:39:48.001Z,42.30
2017-12-22T03:42:15.886Z,39.30
2017-12-22T03:44:43.759Z,41.63
2017-12-22T03:47:11.624Z,45.30
2017-12-22T03:49:39.464Z,49.10
2017-12-22T03:52:07.360Z,48.43
2017-12-22T03:54:35.264Z,47.83
2017-12-22T03:57:03.168Z,61.37
2017-12-22T03:59:31.034Z,51.97
2017-12-22T04:01:58.900Z,53.77
2017-12-22T04:04:26.801Z,48.07
2017-12-22T04:06:54.703Z,64.67
2017-12-22T04:09:22.599Z,56.03
2017-12-22T04:11:50.472Z,55.17
2017-12-22T04:14:18.392Z,46.60
2017-12-22T04:16:46.266Z,48.63
2017-12-22T04:19:14.165Z,41.60
2017-12-22T04:21:42.024Z,43.60
2017-12-22T04:24:09.897Z,37.20
2017-12-22T04:26:37.765Z,43.27
2017-12-22T04:29:05.603Z,45.20
2017-12-22T04:31:33.458Z,48.37
2017-12-22T04:34:01.363Z,41.50
2017-12-22T04:36:29.216Z,53.10
2017-12-22T04:38:57.082Z,44.80
2017-12-22T04:41:24.956Z,42.70
2017-12-22T04:43:52.827Z,39.17
2017-12-22T04:46:20.687Z,36.77
2017-12-22T04:48:48.558Z,38.43
2017-12-22T04:51:16.419Z,42.33
2017-12-22T04:53:44.277Z,40.27
2017-12-22T04:56:12.116Z,55.10
2017-12-22T04:58:39.992Z,39.20
2017-12-22T05:01:07.858Z,35.47
2017-12-22T05:03:35.739Z,46.80
2017-12-22T05:06:03.590Z,46.53
2017-12-22T05:08:31.492Z,52.83
2017-12-22T05:10:59.337Z,48.77
2017-12-22T05:13:27.189Z,45.60
2017-12-22T05:15:55.067Z,42.70
2017-12-22T05:18:22.919Z,52.67
2017-12-22T05:20:50.858Z,45.73
2017-12-22T05:23:18.765Z,53.57
2017-12-22T05:25:46.668Z,44.33
2017-12-22T05:28:14.597Z,53.40
2017-12-22T05:30:42.509Z,42.07
2017-12-22T05:33:10.358Z,39.83
2017-12-22T05:35:38.200Z,48.23
2017-12-22T05:38:06.239Z,36.77
2017-12-22T05:40:34.120Z,42.53
2017-12-22T05:43:01.969Z,45.57
2017-12-22T05:45:29.801Z,44.00
2017-12-22T05:47:57.680Z,41.90
2017-12-22T05:50:25.512Z,60.50
2017-12-22T05:52:53.357Z,51.53
2017-12-22T05:55:22.172Z,34.97
2017-12-22T05:57:50.010Z,41.93
2017-12-22T06:00:17.860Z,40.10
2017-12-22T06:02:45.726Z,43.20
2017-12-22T06:05:13.592Z,52.00
2017-12-22T06:07:41.479Z,40.30
2017-12-22T06:10:09.339Z,44.57
2017-12-22T06:12:37.193Z,53.73
2017-12-22T06:15:05.074Z,41.23
2017-12-22T06:17:33.559Z,44.67
2017-12-22T06:20:01.429Z,47.10
2017-12-22T06:22:29.281Z,42.57
2017-12-22T06:24:57.132Z,55.40
2017-12-22T06:27:25.001Z,50.40
2017-12-22T06:29:52.867Z,44.07
2017-12-22T06:32:20.797Z,43.43
2017-12-22T06:34:48.668Z,41.27
2017-12-22T06:37:16.534Z,61.57
2017-12-22T06:39:44.396Z,53.67
2017-12-22T06:42:12.295Z,44.23
2017-12-22T06:44:40.167Z,48.47
2017-12-22T06:47:08.050Z,52.13
2017-12-22T06:49:35.900Z,46.80
2017-12-22T06:52:03.795Z,53.23
2017-12-22T06:54:31.680Z,55.90
2017-12-22T06:56:59.531Z,50.97
2017-12-22T06:59:27.398Z,47.13
2017-12-22T07:01:55.272Z,52.43
2017-12-22T07:04:23.164Z,56.10
2017-12-22T07:06:51.093Z,50.13
2017-12-22T07:09:18.971Z,62.33
2017-12-22T07:11:52.574Z,57.23
2017-12-22T07:14:20.506Z,54.40
2017-12-22T07:16:49.020Z,52.87
2017-12-22T07:19:16.874Z,50.57
2017-12-22T07:21:44.750Z,51.47
2017-12-22T07:24:12.675Z,46.40
2017-12-22T07:26:40.560Z,49.13
2017-12-22T07:29:08.442Z,54.00
2017-12-22T07:31:40.698Z,48.07
2017-12-22T07:34:08.537Z,55.53
2017-12-22T07:36:36.405Z,54.40
2017-12-22T07:39:04.254Z,54.67
2017-12-22T07:41:32.153Z,57.10
2017-12-22T07:44:00.022Z,55.53
2017-12-22T07:46:27.893Z,49.97
2017-12-22T07:48:55.774Z,53.93
2017-12-22T07:51:23.645Z,44.60
2017-12-22T07:53:51.489Z,42.47
2017-12-22T07:56:19.357Z,51.40
2017-12-22T07:58:47.244Z,55.67
2017-12-22T08:01:15.368Z,54.03
2017-12-22T08:03:43.206Z,60.70
2017-12-22T08:06:11.046Z,58.53
2017-12-22T08:08:38.988Z,43.47
2017-12-22T08:11:06.878Z,56.70
2017-12-22T08:13:34.724Z,55.53
2017-12-22T08:16:02.565Z,51.57
2017-12-22T08:18:30.473Z,50.13
2017-12-22T08:20:58.336Z,45.20
2017-12-22T08:23:26.261Z,45.87
2017-12-22T08:25:54.181Z,53.80
2017-12-22T08:28:22.039Z,40.10
2017-12-22T08:30:49.908Z,41.70
2017-12-22T08:33:17.777Z,53.60
2017-12-22T08:35:45.669Z,41.50
2017-12-22T08:38:13.588Z,44.00
2017-12-22T08:40:41.502Z,52.57
2017-12-22T08:43:09.425Z,46.93
2017-12-22T08:45:37.422Z,44.77
2017-12-22T08:48:05.497Z,48.93
2017-12-22T08:50:33.436Z,45.03
2017-12-22T08:53:01.359Z,51.30
2017-12-22T08:55:29.256Z,48.67
2017-12-22T08:57:57.094Z,48.40
2017-12-22T09:00:24.929Z,44.30
2017-12-22T09:02:52.809Z,44.73
2017-12-22T09:05:20.694Z,45.20
2017-12-22T09:07:48.588Z,49.73
2017-12-22T09:10:16.873Z,60.90
2017-12-22T09:12:44.764Z,59.37
2017-12-22T09:15:12.623Z,50.50
2017-12-22T09:17:40.582Z,53.03
2017-12-22T09:20:08.492Z,51.57
2017-12-22T09:22:36.425Z,53.63
2017-12-22T09:25:04.313Z,50.53
2017-12-22T09:27:32.158Z,54.27
2017-12-22T09:30:00.103Z,51.70
2017-12-22T09:32:27.968Z,47.43
2017-12-22T09:34:59.111Z,48.23
2017-12-22T09:37:45.706Z,58.23
2017-12-22T09:40:15.704Z,54.47
2017-12-22T09:42:43.637Z,56.30
2017-12-22T09:45:11.872Z,59.93
2017-12-22T09:47:41.707Z,67.30
2017-12-22T09:50:16.841Z,67.93
2017-12-22T09:52:44.874Z,69.00
2017-12-22T09:55:12.756Z,70.87
2017-12-22T09:57:40.626Z,64.33
2017-12-22T10:00:08.514Z,64.67
2017-12-22T10:02:36.404Z,66.20
2017-12-22T10:05:04.305Z,58.70
2017-12-22T10:07:32.294Z,72.43
2017-12-22T10:10:00.212Z,55.77
2017-12-22T10:12:28.113Z,63.70
2017-12-22T10:14:56.041Z,45.00
2017-12-22T10:17:23.941Z,59.50
2017-12-22T10:19:51.811Z,60.70
2017-12-22T10:22:19.781Z,58.30
2017-12-22T10:24:47.681Z,65.90
2017-12-22T10:27:22.237Z,54.33
2017-12-22T10:29:50.646Z,57.93
2017-12-22T10:32:18.513Z,57.67
2017-12-22T10:34:48.141Z,71.47
2017-12-22T10:37:16.104Z,59.90
2017-12-22T10:39:47.261Z,65.30
2017-12-22T10:42:15.415Z,50.47
2017-12-22T10:44:43.411Z,62.03
2017-12-22T10:47:11.668Z,59.17
2017-12-22T10:49:39.725Z,54.97
2017-12-22T10:52:07.669Z,57.73
2017-12-22T10:54:35.624Z,58.40
2017-12-22T10:57:03.562Z,54.23
2017-12-22T10:59:31.531Z,48.13
2017-12-22T11:01:59.499Z,62.33
2017-12-22T11:04:27.425Z,47.97
2017-12-22T11:06:55.341Z,51.67
2017-12-22T11:09:23.279Z,53.93
2017-12-22T11:11:51.249Z,39.10
2017-12-22T11:14:19.185Z,39.67
2017-12-22T11:16:47.234Z,35.50
2017-12-22T11:19:15.176Z,33.67
2017-12-22T11:21:43.136Z,41.90
2017-12-22T11:24:11.138Z,39.83
2017-12-22T11:26:39.183Z,42.37
2017-12-22T11:29:07.089Z,35.43
2017-12-22T11:31:35.026Z,36.20
2017-12-22T11:34:02.961Z,43.03
2017-12-22T11:36:30.916Z,39.50
2017-12-22T11:38:58.859Z,34.00
2017-12-22T11:41:26.788Z,33.53
2017-12-22T11:43:54.788Z,25.67
2017-12-22T11:46:22.827Z,28.57
2017-12-22T11:48:50.894Z,44.73
2017-12-22T11:51:18.841Z,25.53
2017-12-22T11:53:46.748Z,31.50
2017-12-22T11:56:14.729Z,32.70
2017-12-22T11:58:42.580Z,33.67
2017-12-22T12:01:10.451Z,22.83
2017-12-22T12:03:38.323Z,30.07
2017-12-22T12:06:06.176Z,40.30
2017-12-22T12:08:34.058Z,22.97
2017-12-22T12:11:01.908Z,35.30
2017-12-22T12:13:29.749Z,38.73
2017-12-22T12:15:57.615Z,32.00
2017-12-22T12:18:25.484Z,34.10
2017-12-22T12:20:53.351Z,25.77
2017-12-22T12:23:21.232Z,38.60
2017-12-22T12:25:49.122Z,37.30
2017-12-22T12:28:16.988Z,29.90
2017-12-22T12:30:44.832Z,34.70
2017-12-22T12:33:12.681Z,28.90
2017-12-22T12:35:40.563Z,29.60
2017-12-22T12:38:08.473Z,24.97
2017-12-22T12:40:36.383Z,36.90
2017-12-22T12:43:05.229Z,36.43
2017-12-22T12:45:33.081Z,28.83
2017-12-22T12:48:01.007Z,41.63
2017-12-22T12:50:28.942Z,41.97
2017-12-22T12:52:56.841Z,35.13
2017-12-22T12:55:24.743Z,34.60
2017-12-22T12:57:52.601Z,30.77
2017-12-22T13:00:20.455Z,43.60
2017-12-22T13:02:48.332Z,36.27
2017-12-22T13:05:16.268Z,33.93
2017-12-22T13:07:44.147Z,33.80
2017-12-22T13:10:12.009Z,31.43
2017-12-22T13:12:39.943Z,31.90
2017-12-22T13:15:07.792Z,27.90
2017-12-22T13:17:35.637Z,21.73
2017-12-22T13:20:03.509Z,25.23
2017-12-22T13:22:31.412Z,208.93
2017-12-22T13:24:59.281Z,59.53
2017-12-22T13:27:27.132Z,94.87
2017-12-22T13:29:55.008Z,57.67
2017-12-22T13:32:22.864Z,32.33
2017-12-22T13:34:50.717Z,31.37
2017-12-22T13:37:18.583Z,32.63
2017-12-22T13:39:46.459Z,25.00
2017-12-22T13:42:14.356Z,30.43
2017-12-22T13:44:42.289Z,29.27
2017-12-22T13:47:10.172Z,27.67
2017-12-22T13:49:38.016Z,32.83
2017-12-22T13:52:05.884Z,45.10
2017-12-22T13:54:33.772Z,22.33
2017-12-22T13:57:02.377Z,26.67
2017-12-22T13:59:30.720Z,25.50
2017-12-22T14:01:58.630Z,29.17
2017-12-22T14:04:26.535Z,39.83
2017-12-22T14:06:54.408Z,25.13
2017-12-22T14:09:22.272Z,38.63
2017-12-22T14:11:50.175Z,36.10
2017-12-22T14:14:18.046Z,29.23
2017-12-22T14:16:46.589Z,50.17
2017-12-22T14:19:14.460Z,52.33
2017-12-22T14:21:42.338Z,30.40
2017-12-22T14:24:10.205Z,22.07
2017-12-22T14:26:38.057Z,33.30
2017-12-22T14:29:05.918Z,34.87
2017-12-22T14:31:33.741Z,41.73
2017-12-22T14:34:01.624Z,38.30
2017-12-22T14:36:29.484Z,31.17
2017-12-22T14:38:57.336Z,28.70
2017-12-22T14:41:25.176Z,33.53
2017-12-22T14:43:53.128Z,36.63
2017-12-22T14:46:20.984Z,31.90
2017-12-22T14:48:48.861Z,35.97
2017-12-22T14:51:16.787Z,37.83
2017-12-22T14:53:44.636Z,38.63
2017-12-22T14:56:12.498Z,29.77
2017-12-22T14:58:40.420Z,29.73
2017-12-22T15:01:08.308Z,35.53
2017-12-22T15:03:36.145Z,26.30
2017-12-22T15:06:04.598Z,30.87
2017-12-22T15:08:32.543Z,34.87
2017-12-22T15:11:00.381Z,37.57
2017-12-22T15:13:28.216Z,32.00
2017-12-22T15:15:56.164Z,36.17
2017-12-22T15:18:24.004Z,32.90
2017-12-22T15:20:51.877Z,28.50
2017-12-22T15:23:19.736Z,31.77
2017-12-22T15:25:47.665Z,50.50
2017-12-22T15:28:15.520Z,59.97
2017-12-22T15:30:43.540Z,33.40
2017-12-22T15:33:12.542Z,41.50
2017-12-22T15:35:40.427Z,50.97
2017-12-22T15:38:08.325Z,34.47
2017-12-22T15:40:38.297Z,35.90
2017-12-22T15:43:06.244Z,32.80
2017-12-22T15:45:34.158Z,59.33
2017-12-22T15:48:01.977Z,42.63
2017-12-22T15:50:29.845Z,33.03
2017-12-22T15:52:57.716Z,45.77
2017-12-22T15:55:25.640Z,47.23
2017-12-22T15:57:53.572Z,37.53
2017-12-22T16:00:21.460Z,36.83
2017-12-22T16:02:49.361Z,43.77
2017-12-22T16:05:17.252Z,38.80
2017-12-22T16:07:45.115Z,48.13
2017-12-22T16:10:12.984Z,32.67
2017-12-22T16:12:47.524Z,45.30
2017-12-22T16:15:15.631Z,52.43
2017-12-22T16:17:43.505Z,35.30
2017-12-22T16:20:11.413Z,40.40
2017-12-22T16:22:39.286Z,45.10
2017-12-22T16:25:07.238Z,42.23
2017-12-22T16:27:35.084Z,30.30
2017-12-22T16:30:02.941Z,47.50
2017-12-22T16:32:30.803Z,39.10
2017-12-22T16:34:58.744Z,46.90
2017-12-22T16:37:26.670Z,48.37
2017-12-22T16:39:54.594Z,35.00
2017-12-22T16:42:24.712Z,60.97
2017-12-22T16:44:53.708Z,46.57
2017-12-22T16:47:21.676Z,43.13
2017-12-22T16:49:49.656Z,48.63
2017-12-22T16:52:17.527Z,44.03
2017-12-22T16:54:45.432Z,42.87
2017-12-22T16:57:13.285Z,48.03
2017-12-22T16:59:41.403Z,56.87
2017-12-22T17:02:09.233Z,61.23
2017-12-22T17:04:37.087Z,50.00
2017-12-22T17:07:08.396Z,56.40
2017-12-22T17:09:36.256Z,61.83
2017-12-22T17:12:04.188Z,48.00
2017-12-22T17:14:32.140Z,55.47
2017-12-22T17:17:00.036Z,64.32
2017-12-22T17:19:27.939Z,57.07
2017-12-22T17:21:55.849Z,53.92
2017-12-22T17:24:23.778Z,58.27
2017-12-22T17:26:51.784Z,62.93
2017-12-22T17:29:19.636Z,49.77
2017-12-22T17:31:47.510Z,56.87
2017-12-22T17:34:15.697Z,53.67
2017-12-22T17:36:43.579Z,56.73
2017-12-22T17:39:12.554Z,56.73
2017-12-22T17:41:40.412Z,49.60
2017-12-22T17:44:08.261Z,51.23
2017-12-22T17:46:36.126Z,66.20
2017-12-22T17:49:03.993Z,42.70
2017-12-22T17:51:31.858Z,67.27
2017-12-22T17:53:59.887Z,55.97
2017-12-22T17:56:27.720Z,60.00
2017-12-22T17:58:55.572Z,48.50
2017-12-22T18:01:23.425Z,54.73
2017-12-22T18:03:51.269Z,67.30
2017-12-22T18:06:19.169Z,57.67
2017-12-22T18:08:46.958Z,80.03
2017-12-22T18:11:14.783Z,58.20
2017-12-22T18:13:42.570Z,66.23
2017-12-22T18:16:10.370Z,67.60
2017-12-22T18:18:38.178Z,58.28
2017-12-22T18:21:05.964Z,57.50
2017-12-22T18:23:33.797Z,56.77
2017-12-22T18:26:01.673Z,74.23
2017-12-22T18:28:29.539Z,78.50
2017-12-22T18:30:57.413Z,55.53
2017-12-22T18:33:25.271Z,58.57
2017-12-22T18:35:53.129Z,62.00
2017-12-22T18:38:21.004Z,56.97
2017-12-22T18:40:48.892Z,69.80
2017-12-22T18:43:16.733Z,64.67
2017-12-22T18:45:44.599Z,66.60
2017-12-22T18:48:12.436Z,50.60
2017-12-22T18:50:40.290Z,60.77
2017-12-22T18:53:08.156Z,53.13
2017-12-22T18:55:36.024Z,67.20
2017-12-22T18:58:03.892Z,58.97
2017-12-22T19:00:31.814Z,59.77
2017-12-22T19:02:59.698Z,55.57
2017-12-22T19:05:27.618Z,63.77
2017-12-22T19:07:55.473Z,54.90
2017-12-22T19:10:23.361Z,56.60
2017-12-22T19:12:51.336Z,58.47
2017-12-22T19:15:19.231Z,63.93
2017-12-22T19:17:47.106Z,63.73
2017-12-22T19:20:14.995Z,64.40
2017-12-22T19:22:42.895Z,67.83
2017-12-22T19:25:10.720Z,69.57
2017-12-22T19:27:38.563Z,63.63
2017-12-22T19:30:06.393Z,56.73
2017-12-22T19:32:34.250Z,68.70
2017-12-22T19:35:02.093Z,72.87
2017-12-22T19:37:29.948Z,65.10
2017-12-22T19:39:57.788Z,67.57
2017-12-22T19:42:25.681Z,65.70
2017-12-22T19:44:53.589Z,73.97
2017-12-22T19:47:21.457Z,75.87
2017-12-22T19:49:49.319Z,58.50
2017-12-22T19:52:17.179Z,65.73
2017-12-22T19:54:45.046Z,50.20
2017-12-22T19:57:12.921Z,63.67
2017-12-22T19:59:40.780Z,64.90
2017-12-22T20:02:08.638Z,65.37
2017-12-22T20:04:36.472Z,70.17
2017-12-22T20:07:04.312Z,71.77
2017-12-22T20:09:32.252Z,58.20
2017-12-22T20:12:00.144Z,78.73
2017-12-22T20:14:27.989Z,60.50
2017-12-22T20:16:55.863Z,64.43
2017-12-22T20:19:23.740Z,60.17
2017-12-22T20:21:51.613Z,57.40
2017-12-22T20:24:19.472Z,65.97
2017-12-22T20:26:47.324Z,68.00
2017-12-22T20:29:15.194Z,74.90
2017-12-22T20:31:43.067Z,81.17
2017-12-22T20:34:10.936Z,74.63
2017-12-22T20:36:38.808Z,63.17
2017-12-22T20:39:06.773Z,58.00
2017-12-22T20:41:34.647Z,61.37
2017-12-22T20:44:02.501Z,55.17
2017-12-22T20:46:30.336Z,63.53
2017-12-22T20:48:58.237Z,53.15
2017-12-22T20:51:26.102Z,66.23
2017-12-22T20:53:53.976Z,78.33
2017-12-22T20:56:21.837Z,67.30
2017-12-22T20:58:49.707Z,62.87
2017-12-22T21:01:17.572Z,86.00
2017-12-22T21:03:45.438Z,86.55
2017-12-22T21:06:13.371Z,85.90
2017-12-22T21:08:41.297Z,62.00
2017-12-22T21:11:09.201Z,76.53
2017-12-22T21:13:37.098Z,66.47
2017-12-22T21:16:04.952Z,70.82
2017-12-22T21:18:32.813Z,88.40
2017-12-22T21:21:00.696Z,84.67
2017-12-22T21:23:28.584Z,77.45
2017-12-22T21:25:56.481Z,79.43
2017-12-22T21:28:24.364Z,75.47
2017-12-22T21:30:52.226Z,74.57
2017-12-22T21:33:20.119Z,81.27
2017-12-22T21:35:48.032Z,77.47
2017-12-22T21:38:15.926Z,74.53
2017-12-22T21:40:43.859Z,78.40
2017-12-22T21:43:11.726Z,71.60
2017-12-22T21:45:39.580Z,62.93
2017-12-22T21:48:07.423Z,81.27
2017-12-22T21:50:35.289Z,74.13
2017-12-22T21:53:03.160Z,70.37
2017-12-22T21:55:30.995Z,75.83
2017-12-22T21:57:58.864Z,68.57
2017-12-22T22:00:26.758Z,69.00
2017-12-22T22:02:54.630Z,80.60
2017-12-22T22:05:22.492Z,80.40
2017-12-22T22:07:50.329Z,65.53
2017-12-22T22:10:18.196Z,76.67
2017-12-22T22:12:46.068Z,73.90
2017-12-22T22:15:13.978Z,72.70
2017-12-22T22:17:41.846Z,80.10
2017-12-22T22:20:09.687Z,68.07
2017-12-22T22:22:37.517Z,62.63
2017-12-22T22:25:05.384Z,62.00
2017-12-22T22:27:33.307Z,64.77
2017-12-22T22:30:01.156Z,70.13
2017-12-22T22:32:30.067Z,69.73
2017-12-22T22:34:57.932Z,70.53
2017-12-22T22:37:25.798Z,67.13
2017-12-22T22:39:53.738Z,42.22
2017-12-22T22:42:21.604Z,57.13
2017-12-22T22:44:49.464Z,46.67
2017-12-22T22:47:17.363Z,60.70
2017-12-22T22:49:45.206Z,58.55
2017-12-22T22:52:13.104Z,59.60
2017-12-22T22:54:40.981Z,58.60
2017-12-22T22:57:08.864Z,66.40
2017-12-22T22:59:36.744Z,52.00
2017-12-22T23:02:04.623Z,50.90
2017-12-22T23:04:32.507Z,71.83
2017-12-22T23:07:00.384Z,64.23
2017-12-22T23:09:28.238Z,58.43
2017-12-22T23:11:56.065Z,65.17
2017-12-22T23:14:23.933Z,63.37
2017-12-22T23:16:52.648Z,63.08
2017-12-22T23:19:20.571Z,72.50
2017-12-22T23:21:48.434Z,63.80
2017-12-22T23:24:16.459Z,65.87
2017-12-22T23:26:44.326Z,64.35
2017-12-22T23:29:12.212Z,48.07
2017-12-22T23:31:56.949Z,62.90
2017-12-22T23:34:24.802Z,57.87
2017-12-22T23:36:52.681Z,41.03
2017-12-22T23:39:20.628Z,52.30
2017-12-22T23:41:48.479Z,45.38
2017-12-22T23:44:16.362Z,47.67
2017-12-22T23:46:44.235Z,47.42
2017-12-22T23:49:12.095Z,61.28
2017-12-22T23:51:39.973Z,51.95
2017-12-22T23:54:07.864Z,49.58
2017-12-22T23:56:35.731Z,46.90
2017-12-22T23:59:03.564Z,58.10
